sensor_id;sensor_type;location;lat;lon;timestamp;P1;durP1;ratioP1;P2;durP2;ratioP2
6251;SDS011;3159;52.414;9.784;2022-10-16T00:00:34;5.73;;;2.80;;
6251;SDS011;3159;52.414;9.784;2022-10-16T00:03:02;5.17;;;2.10;;
6251;SDS011;3159;52.414;9.784;2022-10-16T00:05:29;4.07;;;1.97;;
6251;SDS011;3159;52.414;9.784;2022-10-16T00:07:56;2.70;;;1.67;;
6251;SDS011;3159;52.414;9.784;2022-10-16T00:10:23;1.83;;;1.13;;
6251;SDS011;3159;52.414;9.784;2022-10-16T00:12:51;3.47;;;1.23;;
6251;SDS011;3159;52.414;9.784;2022-10-16T00:15:18;2.20;;;1.10;;
6251;SDS011;3159;52.414;9.784;2022-10-16T00:17:45;1.13;;;0.90;;
6251;SDS011;3159;52.414;9.784;2022-10-16T00:20:11;2.20;;;0.73;;
6251;SDS011;3159;52.414;9.784;2022-10-16T00:22:38;1.83;;;1.00;;
6251;SDS011;3159;52.414;9.784;2022-10-16T00:25:05;3.13;;;1.00;;
6251;SDS011;3159;52.414;9.784;2022-10-16T00:27:32;5.57;;;1.23;;
6251;SDS011;3159;52.414;9.784;2022-10-16T00:30:01;3.00;;;0.90;;
6251;SDS011;3159;52.414;9.784;2022-10-16T00:32:28;2.07;;;0.77;;
6251;SDS011;3159;52.414;9.784;2022-10-16T00:34:55;1.10;;;0.80;;
6251;SDS011;3159;52.414;9.784;2022-10-16T00:37:22;3.20;;;0.90;;
6251;SDS011;3159;52.414;9.784;2022-10-16T00:39:48;1.97;;;0.87;;
6251;SDS011;3159;52.414;9.784;2022-10-16T00:42:16;0.87;;;0.80;;
6251;SDS011;3159;52.414;9.784;2022-10-16T00:44:46;2.03;;;0.80;;
6251;SDS011;3159;52.414;9.784;2022-10-16T00:47:19;1.47;;;0.83;;
6251;SDS011;3159;52.414;9.784;2022-10-16T00:49:51;2.83;;;0.63;;
6251;SDS011;3159;52.414;9.784;2022-10-16T00:52:22;0.90;;;0.60;;
6251;SDS011;3159;52.414;9.784;2022-10-16T00:54:49;1.10;;;0.87;;
6251;SDS011;3159;52.414;9.784;2022-10-16T00:57:18;2.00;;;0.70;;
6251;SDS011;3159;52.414;9.784;2022-10-16T00:59:45;0.50;;;0.50;;
6251;SDS011;3159;52.414;9.784;2022-10-16T01:02:13;1.53;;;0.60;;
6251;SDS011;3159;52.414;9.784;2022-10-16T01:04:43;1.37;;;0.90;;
6251;SDS011;3159;52.414;9.784;2022-10-16T01:07:12;2.27;;;0.70;;
6251;SDS011;3159;52.414;9.784;2022-10-16T01:09:51;1.30;;;0.87;;
6251;SDS011;3159;52.414;9.784;2022-10-16T01:12:30;1.93;;;0.80;;
6251;SDS011;3159;52.414;9.784;2022-10-16T01:15:06;1.87;;;0.80;;
6251;SDS011;3159;52.414;9.784;2022-10-16T01:17:39;2.77;;;0.70;;
6251;SDS011;3159;52.414;9.784;2022-10-16T01:20:14;1.57;;;0.87;;
6251;SDS011;3159;52.414;9.784;2022-10-16T01:22:55;2.67;;;0.90;;
6251;SDS011;3159;52.414;9.784;2022-10-16T01:25:37;2.00;;;0.90;;
6251;SDS011;3159;52.414;9.784;2022-10-16T01:28:19;2.07;;;0.87;;
6251;SDS011;3159;52.414;9.784;2022-10-16T01:30:50;2.00;;;0.90;;
6251;SDS011;3159;52.414;9.784;2022-10-16T01:33:20;2.23;;;0.93;;
6251;SDS011;3159;52.414;9.784;2022-10-16T01:35:51;2.27;;;0.80;;
6251;SDS011;3159;52.414;9.784;2022-10-16T01:38:21;1.87;;;0.90;;
6251;SDS011;3159;52.414;9.784;2022-10-16T01:40:52;2.77;;;0.90;;
6251;SDS011;3159;52.414;9.784;2022-10-16T01:43:27;3.00;;;0.80;;
6251;SDS011;3159;52.414;9.784;2022-10-16T01:45:59;1.37;;;1.00;;
6251;SDS011;3159;52.414;9.784;2022-10-16T01:48:27;1.40;;;1.00;;
6251;SDS011;3159;52.414;9.784;2022-10-16T01:50:59;1.93;;;1.00;;
6251;SDS011;3159;52.414;9.784;2022-10-16T01:53:31;1.27;;;0.90;;
6251;SDS011;3159;52.414;9.784;2022-10-16T01:55:58;2.80;;;1.23;;
6251;SDS011;3159;52.414;9.784;2022-10-16T01:58:29;5.27;;;1.13;;
6251;SDS011;3159;52.414;9.784;2022-10-16T02:01:00;1.03;;;0.70;;
6251;SDS011;3159;52.414;9.784;2022-10-16T02:03:29;2.50;;;1.10;;
6251;SDS011;3159;52.414;9.784;2022-10-16T02:05:56;2.83;;;0.80;;
6251;SDS011;3159;52.414;9.784;2022-10-16T02:08:25;2.33;;;0.90;;
6251;SDS011;3159;52.414;9.784;2022-10-16T02:10:54;1.13;;;0.90;;
6251;SDS011;3159;52.414;9.784;2022-10-16T02:13:22;2.17;;;0.80;;
6251;SDS011;3159;52.414;9.784;2022-10-16T02:15:53;2.00;;;1.00;;
6251;SDS011;3159;52.414;9.784;2022-10-16T02:18:20;1.27;;;0.80;;
6251;SDS011;3159;52.414;9.784;2022-10-16T02:20:48;1.00;;;0.70;;
6251;SDS011;3159;52.414;9.784;2022-10-16T02:23:20;1.33;;;1.00;;
6251;SDS011;3159;52.414;9.784;2022-10-16T02:25:54;1.40;;;0.90;;
6251;SDS011;3159;52.414;9.784;2022-10-16T02:28:26;2.53;;;1.10;;
6251;SDS011;3159;52.414;9.784;2022-10-16T02:31:00;2.30;;;0.90;;
6251;SDS011;3159;52.414;9.784;2022-10-16T02:33:29;4.80;;;0.90;;
6251;SDS011;3159;52.414;9.784;2022-10-16T02:35:58;2.57;;;0.97;;
6251;SDS011;3159;52.414;9.784;2022-10-16T02:38:25;1.77;;;1.10;;
6251;SDS011;3159;52.414;9.784;2022-10-16T02:40:53;2.77;;;1.20;;
6251;SDS011;3159;52.414;9.784;2022-10-16T02:43:21;2.43;;;1.10;;
6251;SDS011;3159;52.414;9.784;2022-10-16T02:45:48;1.70;;;0.90;;
6251;SDS011;3159;52.414;9.784;2022-10-16T02:48:16;1.33;;;1.07;;
6251;SDS011;3159;52.414;9.784;2022-10-16T02:50:43;1.13;;;1.03;;
6251;SDS011;3159;52.414;9.784;2022-10-16T02:53:10;2.63;;;1.10;;
6251;SDS011;3159;52.414;9.784;2022-10-16T02:55:37;3.80;;;1.33;;
6251;SDS011;3159;52.414;9.784;2022-10-16T02:58:03;1.30;;;1.10;;
6251;SDS011;3159;52.414;9.784;2022-10-16T03:00:30;1.87;;;1.10;;
6251;SDS011;3159;52.414;9.784;2022-10-16T03:02:57;1.27;;;1.10;;
6251;SDS011;3159;52.414;9.784;2022-10-16T03:05:25;1.70;;;1.03;;
6251;SDS011;3159;52.414;9.784;2022-10-16T03:07:52;2.00;;;1.00;;
6251;SDS011;3159;52.414;9.784;2022-10-16T03:10:19;1.23;;;1.10;;
6251;SDS011;3159;52.414;9.784;2022-10-16T03:12:46;1.40;;;1.20;;
6251;SDS011;3159;52.414;9.784;2022-10-16T03:15:12;2.37;;;1.40;;
6251;SDS011;3159;52.414;9.784;2022-10-16T03:17:39;5.50;;;1.70;;
6251;SDS011;3159;52.414;9.784;2022-10-16T03:20:06;2.00;;;1.30;;
6251;SDS011;3159;52.414;9.784;2022-10-16T03:22:35;2.40;;;1.23;;
6251;SDS011;3159;52.414;9.784;2022-10-16T03:25:02;2.37;;;1.20;;
6251;SDS011;3159;52.414;9.784;2022-10-16T03:27:29;1.40;;;1.30;;
6251;SDS011;3159;52.414;9.784;2022-10-16T03:29:56;3.43;;;1.30;;
6251;SDS011;3159;52.414;9.784;2022-10-16T03:32:23;2.00;;;1.00;;
6251;SDS011;3159;52.414;9.784;2022-10-16T03:34:50;3.13;;;1.30;;
6251;SDS011;3159;52.414;9.784;2022-10-16T03:37:19;2.50;;;1.30;;
6251;SDS011;3159;52.414;9.784;2022-10-16T03:39:47;1.30;;;1.20;;
6251;SDS011;3159;52.414;9.784;2022-10-16T03:42:14;3.57;;;1.40;;
6251;SDS011;3159;52.414;9.784;2022-10-16T03:44:41;1.50;;;1.30;;
6251;SDS011;3159;52.414;9.784;2022-10-16T03:47:08;1.20;;;1.10;;
6251;SDS011;3159;52.414;9.784;2022-10-16T03:49:34;1.83;;;1.30;;
6251;SDS011;3159;52.414;9.784;2022-10-16T03:52:01;3.60;;;1.30;;
6251;SDS011;3159;52.414;9.784;2022-10-16T03:54:28;2.33;;;1.53;;
6251;SDS011;3159;52.414;9.784;2022-10-16T03:56:56;4.80;;;1.30;;
6251;SDS011;3159;52.414;9.784;2022-10-16T03:59:23;3.60;;;1.70;;
6251;SDS011;3159;52.414;9.784;2022-10-16T04:01:50;1.70;;;1.23;;
6251;SDS011;3159;52.414;9.784;2022-10-16T04:04:17;3.97;;;1.53;;
6251;SDS011;3159;52.414;9.784;2022-10-16T04:06:43;2.87;;;1.37;;
6251;SDS011;3159;52.414;9.784;2022-10-16T04:09:10;3.27;;;1.60;;
6251;SDS011;3159;52.414;9.784;2022-10-16T04:11:37;1.47;;;1.30;;
6251;SDS011;3159;52.414;9.784;2022-10-16T04:14:05;2.50;;;1.77;;
6251;SDS011;3159;52.414;9.784;2022-10-16T04:16:32;2.63;;;1.37;;
6251;SDS011;3159;52.414;9.784;2022-10-16T04:18:59;3.80;;;1.60;;
6251;SDS011;3159;52.414;9.784;2022-10-16T04:21:25;2.10;;;1.57;;
6251;SDS011;3159;52.414;9.784;2022-10-16T04:23:52;3.50;;;1.40;;
6251;SDS011;3159;52.414;9.784;2022-10-16T04:26:19;2.97;;;1.50;;
6251;SDS011;3159;52.414;9.784;2022-10-16T04:28:46;2.83;;;1.60;;
6251;SDS011;3159;52.414;9.784;2022-10-16T04:31:14;3.43;;;1.40;;
6251;SDS011;3159;52.414;9.784;2022-10-16T04:33:42;3.87;;;2.13;;
6251;SDS011;3159;52.414;9.784;2022-10-16T04:36:09;1.80;;;1.30;;
6251;SDS011;3159;52.414;9.784;2022-10-16T04:38:35;4.10;;;1.70;;
6251;SDS011;3159;52.414;9.784;2022-10-16T04:41:04;1.87;;;1.70;;
6251;SDS011;3159;52.414;9.784;2022-10-16T04:43:31;2.80;;;1.97;;
6251;SDS011;3159;52.414;9.784;2022-10-16T04:45:59;4.73;;;1.60;;
6251;SDS011;3159;52.414;9.784;2022-10-16T04:48:28;1.90;;;1.30;;
6251;SDS011;3159;52.414;9.784;2022-10-16T04:50:54;3.80;;;1.83;;
6251;SDS011;3159;52.414;9.784;2022-10-16T04:53:21;4.13;;;1.73;;
6251;SDS011;3159;52.414;9.784;2022-10-16T04:55:48;5.33;;;1.33;;
6251;SDS011;3159;52.414;9.784;2022-10-16T04:58:15;3.20;;;1.73;;
6251;SDS011;3159;52.414;9.784;2022-10-16T05:00:42;5.07;;;1.87;;
6251;SDS011;3159;52.414;9.784;2022-10-16T05:03:11;5.47;;;1.70;;
6251;SDS011;3159;52.414;9.784;2022-10-16T05:05:41;3.87;;;1.97;;
6251;SDS011;3159;52.414;9.784;2022-10-16T05:08:08;3.00;;;1.70;;
6251;SDS011;3159;52.414;9.784;2022-10-16T05:10:35;3.57;;;1.73;;
6251;SDS011;3159;52.414;9.784;2022-10-16T05:13:02;2.47;;;1.70;;
6251;SDS011;3159;52.414;9.784;2022-10-16T05:15:29;2.73;;;1.50;;
6251;SDS011;3159;52.414;9.784;2022-10-16T05:17:56;1.73;;;1.60;;
6251;SDS011;3159;52.414;9.784;2022-10-16T05:20:23;1.97;;;1.50;;
6251;SDS011;3159;52.414;9.784;2022-10-16T05:22:51;1.63;;;1.47;;
6251;SDS011;3159;52.414;9.784;2022-10-16T05:25:18;1.87;;;1.60;;
6251;SDS011;3159;52.414;9.784;2022-10-16T05:27:47;2.53;;;2.17;;
6251;SDS011;3159;52.414;9.784;2022-10-16T05:30:14;6.80;;;2.30;;
6251;SDS011;3159;52.414;9.784;2022-10-16T05:32:41;2.57;;;2.23;;
6251;SDS011;3159;52.414;9.784;2022-10-16T05:35:11;2.70;;;2.30;;
6251;SDS011;3159;52.414;9.784;2022-10-16T05:37:38;3.50;;;2.43;;
6251;SDS011;3159;52.414;9.784;2022-10-16T05:40:07;4.60;;;1.87;;
6251;SDS011;3159;52.414;9.784;2022-10-16T05:42:34;3.60;;;2.00;;
6251;SDS011;3159;52.414;9.784;2022-10-16T05:45:02;3.20;;;2.00;;
6251;SDS011;3159;52.414;9.784;2022-10-16T05:47:30;4.07;;;1.93;;
6251;SDS011;3159;52.414;9.784;2022-10-16T05:49:57;3.17;;;2.00;;
6251;SDS011;3159;52.414;9.784;2022-10-16T05:52:23;5.90;;;2.07;;
6251;SDS011;3159;52.414;9.784;2022-10-16T05:54:50;3.80;;;2.40;;
6251;SDS011;3159;52.414;9.784;2022-10-16T05:57:18;3.97;;;1.90;;
6251;SDS011;3159;52.414;9.784;2022-10-16T05:59:45;2.97;;;2.00;;
6251;SDS011;3159;52.414;9.784;2022-10-16T06:02:12;2.23;;;2.03;;
6251;SDS011;3159;52.414;9.784;2022-10-16T06:04:39;4.70;;;2.10;;
6251;SDS011;3159;52.414;9.784;2022-10-16T06:07:07;3.33;;;1.80;;
6251;SDS011;3159;52.414;9.784;2022-10-16T06:09:33;2.80;;;1.87;;
6251;SDS011;3159;52.414;9.784;2022-10-16T06:12:00;2.73;;;1.80;;
6251;SDS011;3159;52.414;9.784;2022-10-16T06:14:28;3.27;;;1.70;;
6251;SDS011;3159;52.414;9.784;2022-10-16T06:16:55;3.43;;;1.70;;
6251;SDS011;3159;52.414;9.784;2022-10-16T06:19:22;3.00;;;1.83;;
6251;SDS011;3159;52.414;9.784;2022-10-16T06:21:49;4.03;;;2.20;;
6251;SDS011;3159;52.414;9.784;2022-10-16T06:24:16;3.57;;;2.00;;
6251;SDS011;3159;52.414;9.784;2022-10-16T06:26:42;2.70;;;1.70;;
6251;SDS011;3159;52.414;9.784;2022-10-16T06:29:09;4.33;;;1.97;;
6251;SDS011;3159;52.414;9.784;2022-10-16T06:31:37;2.70;;;2.00;;
6251;SDS011;3159;52.414;9.784;2022-10-16T06:34:04;2.00;;;1.80;;
6251;SDS011;3159;52.414;9.784;2022-10-16T06:36:34;4.90;;;2.10;;
6251;SDS011;3159;52.414;9.784;2022-10-16T06:39:01;2.40;;;1.80;;
6251;SDS011;3159;52.414;9.784;2022-10-16T06:41:28;4.20;;;1.83;;
6251;SDS011;3159;52.414;9.784;2022-10-16T06:43:55;2.90;;;1.70;;
6251;SDS011;3159;52.414;9.784;2022-10-16T06:46:23;3.27;;;1.60;;
6251;SDS011;3159;52.414;9.784;2022-10-16T06:48:53;1.57;;;1.30;;
6251;SDS011;3159;52.414;9.784;2022-10-16T06:51:20;1.90;;;1.60;;
6251;SDS011;3159;52.414;9.784;2022-10-16T06:53:49;3.40;;;2.07;;
6251;SDS011;3159;52.414;9.784;2022-10-16T06:56:17;2.47;;;2.10;;
6251;SDS011;3159;52.414;9.784;2022-10-16T06:58:45;3.10;;;1.30;;
6251;SDS011;3159;52.414;9.784;2022-10-16T07:01:13;2.47;;;1.60;;
6251;SDS011;3159;52.414;9.784;2022-10-16T07:03:41;2.30;;;2.00;;
6251;SDS011;3159;52.414;9.784;2022-10-16T07:06:11;1.60;;;1.20;;
6251;SDS011;3159;52.414;9.784;2022-10-16T07:08:41;1.83;;;1.20;;
6251;SDS011;3159;52.414;9.784;2022-10-16T07:11:09;1.83;;;1.40;;
6251;SDS011;3159;52.414;9.784;2022-10-16T07:13:38;1.30;;;1.20;;
6251;SDS011;3159;52.414;9.784;2022-10-16T07:16:06;1.23;;;1.13;;
6251;SDS011;3159;52.414;9.784;2022-10-16T07:18:33;2.70;;;1.20;;
6251;SDS011;3159;52.414;9.784;2022-10-16T07:21:04;1.87;;;1.57;;
6251;SDS011;3159;52.414;9.784;2022-10-16T07:23:33;2.83;;;1.37;;
6251;SDS011;3159;52.414;9.784;2022-10-16T07:26:00;2.50;;;1.20;;
6251;SDS011;3159;52.414;9.784;2022-10-16T07:28:27;2.20;;;1.30;;
6251;SDS011;3159;52.414;9.784;2022-10-16T07:30:55;1.87;;;1.13;;
6251;SDS011;3159;52.414;9.784;2022-10-16T07:33:22;1.27;;;1.00;;
6251;SDS011;3159;52.414;9.784;2022-10-16T07:35:49;2.03;;;1.40;;
6251;SDS011;3159;52.414;9.784;2022-10-16T07:38:16;1.10;;;1.00;;
6251;SDS011;3159;52.414;9.784;2022-10-16T07:40:45;1.00;;;0.83;;
6251;SDS011;3159;52.414;9.784;2022-10-16T07:43:12;1.43;;;1.20;;
6251;SDS011;3159;52.414;9.784;2022-10-16T07:45:46;3.50;;;1.10;;
6251;SDS011;3159;52.414;9.784;2022-10-16T07:48:14;1.60;;;1.20;;
6251;SDS011;3159;52.414;9.784;2022-10-16T07:50:41;2.90;;;1.10;;
6251;SDS011;3159;52.414;9.784;2022-10-16T07:53:08;1.80;;;0.80;;
6251;SDS011;3159;52.414;9.784;2022-10-16T07:55:35;2.90;;;1.40;;
6251;SDS011;3159;52.414;9.784;2022-10-16T07:58:04;1.43;;;0.80;;
6251;SDS011;3159;52.414;9.784;2022-10-16T08:00:31;0.87;;;0.70;;
6251;SDS011;3159;52.414;9.784;2022-10-16T08:02:58;0.77;;;0.77;;
6251;SDS011;3159;52.414;9.784;2022-10-16T08:05:25;1.80;;;0.70;;
6251;SDS011;3159;52.414;9.784;2022-10-16T08:07:52;2.60;;;0.77;;
6251;SDS011;3159;52.414;9.784;2022-10-16T08:10:20;3.63;;;1.00;;
6251;SDS011;3159;52.414;9.784;2022-10-16T08:12:47;3.53;;;0.80;;
6251;SDS011;3159;52.414;9.784;2022-10-16T08:15:16;3.37;;;0.90;;
6251;SDS011;3159;52.414;9.784;2022-10-16T08:17:43;0.93;;;0.80;;
6251;SDS011;3159;52.414;9.784;2022-10-16T08:20:10;1.60;;;0.70;;
6251;SDS011;3159;52.414;9.784;2022-10-16T08:22:37;1.07;;;0.97;;
6251;SDS011;3159;52.414;9.784;2022-10-16T08:25:04;4.20;;;1.03;;
6251;SDS011;3159;52.414;9.784;2022-10-16T08:27:32;0.93;;;0.70;;
6251;SDS011;3159;52.414;9.784;2022-10-16T08:29:59;3.30;;;0.80;;
6251;SDS011;3159;52.414;9.784;2022-10-16T08:32:27;2.40;;;0.80;;
6251;SDS011;3159;52.414;9.784;2022-10-16T08:34:54;5.03;;;3.83;;
6251;SDS011;3159;52.414;9.784;2022-10-16T08:37:21;0.67;;;0.63;;
6251;SDS011;3159;52.414;9.784;2022-10-16T08:39:48;2.40;;;0.63;;
6251;SDS011;3159;52.414;9.784;2022-10-16T08:42:24;2.57;;;0.70;;
6251;SDS011;3159;52.414;9.784;2022-10-16T08:45:15;1.00;;;0.70;;
6251;SDS011;3159;52.414;9.784;2022-10-16T08:47:53;1.07;;;0.87;;
6251;SDS011;3159;52.414;9.784;2022-10-16T08:50:27;1.00;;;0.50;;
6251;SDS011;3159;52.414;9.784;2022-10-16T08:52:56;0.73;;;0.50;;
6251;SDS011;3159;52.414;9.784;2022-10-16T08:55:30;2.40;;;0.50;;
6251;SDS011;3159;52.414;9.784;2022-10-16T08:58:00;1.33;;;0.90;;
6251;SDS011;3159;52.414;9.784;2022-10-16T09:00:27;1.30;;;0.70;;
6251;SDS011;3159;52.414;9.784;2022-10-16T09:02:59;1.90;;;0.50;;
6251;SDS011;3159;52.414;9.784;2022-10-16T09:08:29;1.07;;;0.80;;
6251;SDS011;3159;52.414;9.784;2022-10-16T09:11:06;0.70;;;0.60;;
6251;SDS011;3159;52.414;9.784;2022-10-16T09:13:43;1.87;;;0.60;;
6251;SDS011;3159;52.414;9.784;2022-10-16T09:16:18;0.60;;;0.40;;
6251;SDS011;3159;52.414;9.784;2022-10-16T09:18:52;2.43;;;0.70;;
6251;SDS011;3159;52.414;9.784;2022-10-16T09:21:25;1.20;;;0.60;;
6251;SDS011;3159;52.414;9.784;2022-10-16T09:23:56;1.80;;;0.70;;
6251;SDS011;3159;52.414;9.784;2022-10-16T09:26:25;1.27;;;0.63;;
6251;SDS011;3159;52.414;9.784;2022-10-16T09:28:52;0.80;;;0.40;;
6251;SDS011;3159;52.414;9.784;2022-10-16T09:31:19;1.67;;;0.70;;
6251;SDS011;3159;52.414;9.784;2022-10-16T09:33:48;1.13;;;0.50;;
6251;SDS011;3159;52.414;9.784;2022-10-16T09:36:20;0.67;;;0.50;;
6251;SDS011;3159;52.414;9.784;2022-10-16T09:38:47;2.87;;;0.60;;
6251;SDS011;3159;52.414;9.784;2022-10-16T09:41:16;1.77;;;0.80;;
6251;SDS011;3159;52.414;9.784;2022-10-16T09:43:48;1.13;;;0.50;;
6251;SDS011;3159;52.414;9.784;2022-10-16T09:46:21;3.63;;;0.60;;
6251;SDS011;3159;52.414;9.784;2022-10-16T09:48:53;1.13;;;0.70;;
6251;SDS011;3159;52.414;9.784;2022-10-16T09:51:24;1.73;;;0.50;;
6251;SDS011;3159;52.414;9.784;2022-10-16T09:53:57;0.90;;;0.53;;
6251;SDS011;3159;52.414;9.784;2022-10-16T09:56:25;1.90;;;0.50;;
6251;SDS011;3159;52.414;9.784;2022-10-16T09:58:57;1.57;;;0.60;;
6251;SDS011;3159;52.414;9.784;2022-10-16T10:01:26;3.00;;;0.50;;
6251;SDS011;3159;52.414;9.784;2022-10-16T10:03:58;3.10;;;0.63;;
6251;SDS011;3159;52.414;9.784;2022-10-16T10:06:28;2.13;;;0.60;;
6251;SDS011;3159;52.414;9.784;2022-10-16T10:08:58;3.27;;;0.70;;
6251;SDS011;3159;52.414;9.784;2022-10-16T10:11:38;0.83;;;0.63;;
6251;SDS011;3159;52.414;9.784;2022-10-16T10:14:20;1.40;;;0.60;;
6251;SDS011;3159;52.414;9.784;2022-10-16T10:17:01;2.40;;;0.73;;
6251;SDS011;3159;52.414;9.784;2022-10-16T10:19:38;2.97;;;0.50;;
6251;SDS011;3159;52.414;9.784;2022-10-16T10:22:16;1.53;;;0.70;;
6251;SDS011;3159;52.414;9.784;2022-10-16T10:24:55;1.80;;;0.60;;
6251;SDS011;3159;52.414;9.784;2022-10-16T10:27:38;7.40;;;0.70;;
6251;SDS011;3159;52.414;9.784;2022-10-16T10:30:18;3.13;;;0.73;;
6251;SDS011;3159;52.414;9.784;2022-10-16T10:32:51;1.37;;;0.60;;
6251;SDS011;3159;52.414;9.784;2022-10-16T10:35:39;1.70;;;0.63;;
6251;SDS011;3159;52.414;9.784;2022-10-16T10:38:16;1.40;;;0.57;;
6251;SDS011;3159;52.414;9.784;2022-10-16T10:40:55;2.43;;;0.70;;
6251;SDS011;3159;52.414;9.784;2022-10-16T10:43:37;1.10;;;0.63;;
6251;SDS011;3159;52.414;9.784;2022-10-16T10:46:18;5.70;;;0.80;;
6251;SDS011;3159;52.414;9.784;2022-10-16T10:49:09;2.10;;;0.60;;
6251;SDS011;3159;52.414;9.784;2022-10-16T10:51:49;0.97;;;0.50;;
6251;SDS011;3159;52.414;9.784;2022-10-16T10:54:25;2.50;;;0.80;;
6251;SDS011;3159;52.414;9.784;2022-10-16T10:57:00;1.37;;;0.63;;
6251;SDS011;3159;52.414;9.784;2022-10-16T10:59:41;2.77;;;0.60;;
6251;SDS011;3159;52.414;9.784;2022-10-16T11:02:22;4.20;;;0.70;;
6251;SDS011;3159;52.414;9.784;2022-10-16T11:05:13;3.60;;;0.60;;
6251;SDS011;3159;52.414;9.784;2022-10-16T11:07:58;1.23;;;0.73;;
6251;SDS011;3159;52.414;9.784;2022-10-16T11:10:29;3.00;;;0.73;;
6251;SDS011;3159;52.414;9.784;2022-10-16T11:13:06;3.67;;;0.77;;
6251;SDS011;3159;52.414;9.784;2022-10-16T11:15:40;2.33;;;0.50;;
6251;SDS011;3159;52.414;9.784;2022-10-16T11:18:12;3.07;;;0.80;;
6251;SDS011;3159;52.414;9.784;2022-10-16T11:20:45;1.30;;;0.60;;
6251;SDS011;3159;52.414;9.784;2022-10-16T11:23:18;1.77;;;0.70;;
6251;SDS011;3159;52.414;9.784;2022-10-16T11:25:51;1.67;;;0.50;;
6251;SDS011;3159;52.414;9.784;2022-10-16T11:28:20;2.57;;;0.63;;
6251;SDS011;3159;52.414;9.784;2022-10-16T11:30:54;2.30;;;0.60;;
6251;SDS011;3159;52.414;9.784;2022-10-16T11:33:27;2.23;;;0.57;;
6251;SDS011;3159;52.414;9.784;2022-10-16T11:36:00;2.37;;;0.67;;
6251;SDS011;3159;52.414;9.784;2022-10-16T11:38:37;1.97;;;0.47;;
6251;SDS011;3159;52.414;9.784;2022-10-16T11:41:10;1.37;;;0.57;;
6251;SDS011;3159;52.414;9.784;2022-10-16T11:43:49;2.27;;;0.83;;
6251;SDS011;3159;52.414;9.784;2022-10-16T11:46:24;3.23;;;0.80;;
6251;SDS011;3159;52.414;9.784;2022-10-16T11:48:54;0.73;;;0.40;;
6251;SDS011;3159;52.414;9.784;2022-10-16T11:51:31;2.83;;;0.60;;
6251;SDS011;3159;52.414;9.784;2022-10-16T11:54:04;1.20;;;0.40;;
6251;SDS011;3159;52.414;9.784;2022-10-16T11:56:41;2.20;;;0.50;;
6251;SDS011;3159;52.414;9.784;2022-10-16T11:59:12;9.30;;;0.90;;
6251;SDS011;3159;52.414;9.784;2022-10-16T12:01:46;2.90;;;0.63;;
6251;SDS011;3159;52.414;9.784;2022-10-16T12:04:20;2.47;;;0.50;;
6251;SDS011;3159;52.414;9.784;2022-10-16T12:06:55;0.77;;;0.43;;
6251;SDS011;3159;52.414;9.784;2022-10-16T12:09:27;1.80;;;0.40;;
6251;SDS011;3159;52.414;9.784;2022-10-16T12:11:56;4.90;;;0.60;;
6251;SDS011;3159;52.414;9.784;2022-10-16T12:14:34;1.60;;;0.57;;
6251;SDS011;3159;52.414;9.784;2022-10-16T12:19:58;2.80;;;0.90;;
6251;SDS011;3159;52.414;9.784;2022-10-16T12:22:27;0.67;;;0.30;;
6251;SDS011;3159;52.414;9.784;2022-10-16T12:24:57;3.00;;;0.70;;
6251;SDS011;3159;52.414;9.784;2022-10-16T12:27:27;1.23;;;0.40;;
6251;SDS011;3159;52.414;9.784;2022-10-16T12:29:55;1.97;;;0.63;;
6251;SDS011;3159;52.414;9.784;2022-10-16T12:32:27;0.97;;;0.50;;
6251;SDS011;3159;52.414;9.784;2022-10-16T12:34:57;0.80;;;0.30;;
6251;SDS011;3159;52.414;9.784;2022-10-16T12:37:26;1.50;;;0.60;;
6251;SDS011;3159;52.414;9.784;2022-10-16T12:39:55;2.80;;;0.60;;
6251;SDS011;3159;52.414;9.784;2022-10-16T12:42:32;1.00;;;0.60;;
6251;SDS011;3159;52.414;9.784;2022-10-16T12:45:00;1.53;;;0.30;;
6251;SDS011;3159;52.414;9.784;2022-10-16T12:47:38;1.33;;;0.47;;
6251;SDS011;3159;52.414;9.784;2022-10-16T12:50:28;1.50;;;0.50;;
6251;SDS011;3159;52.414;9.784;2022-10-16T12:52:58;0.83;;;0.50;;
6251;SDS011;3159;52.414;9.784;2022-10-16T12:55:27;1.13;;;0.40;;
6251;SDS011;3159;52.414;9.784;2022-10-16T12:58:09;1.57;;;0.50;;
6251;SDS011;3159;52.414;9.784;2022-10-16T13:00:50;1.07;;;0.40;;
6251;SDS011;3159;52.414;9.784;2022-10-16T13:03:40;0.70;;;0.37;;
6251;SDS011;3159;52.414;9.784;2022-10-16T13:06:25;1.27;;;0.40;;
6251;SDS011;3159;52.414;9.784;2022-10-16T13:09:05;1.37;;;0.70;;
6251;SDS011;3159;52.414;9.784;2022-10-16T13:11:50;0.73;;;0.57;;
6251;SDS011;3159;52.414;9.784;2022-10-16T13:14:33;0.90;;;0.63;;
6251;SDS011;3159;52.414;9.784;2022-10-16T13:17:14;1.57;;;0.50;;
6251;SDS011;3159;52.414;9.784;2022-10-16T13:19:51;0.90;;;0.47;;
6251;SDS011;3159;52.414;9.784;2022-10-16T13:22:24;2.67;;;0.60;;
6251;SDS011;3159;52.414;9.784;2022-10-16T13:25:02;1.40;;;0.47;;
6251;SDS011;3159;52.414;9.784;2022-10-16T13:27:43;1.30;;;0.57;;
6251;SDS011;3159;52.414;9.784;2022-10-16T13:30:17;2.60;;;0.47;;
6251;SDS011;3159;52.414;9.784;2022-10-16T13:32:46;2.37;;;0.40;;
6251;SDS011;3159;52.414;9.784;2022-10-16T13:35:19;2.00;;;0.40;;
6251;SDS011;3159;52.414;9.784;2022-10-16T13:37:47;1.17;;;0.40;;
6251;SDS011;3159;52.414;9.784;2022-10-16T13:40:17;5.87;;;0.87;;
6251;SDS011;3159;52.414;9.784;2022-10-16T13:42:47;1.23;;;0.57;;
6251;SDS011;3159;52.414;9.784;2022-10-16T13:45:18;1.27;;;0.50;;
6251;SDS011;3159;52.414;9.784;2022-10-16T13:47:45;0.87;;;0.40;;
6251;SDS011;3159;52.414;9.784;2022-10-16T13:50:12;1.87;;;1.40;;
6251;SDS011;3159;52.414;9.784;2022-10-16T13:52:41;1.97;;;1.03;;
6251;SDS011;3159;52.414;9.784;2022-10-16T13:55:10;3.87;;;0.60;;
6251;SDS011;3159;52.414;9.784;2022-10-16T13:57:38;1.00;;;0.60;;
6251;SDS011;3159;52.414;9.784;2022-10-16T14:00:18;2.37;;;1.13;;
6251;SDS011;3159;52.414;9.784;2022-10-16T14:02:49;2.53;;;0.40;;
6251;SDS011;3159;52.414;9.784;2022-10-16T14:05:19;3.07;;;0.67;;
6251;SDS011;3159;52.414;9.784;2022-10-16T14:07:47;2.67;;;0.70;;
6251;SDS011;3159;52.414;9.784;2022-10-16T14:10:20;1.30;;;0.60;;
6251;SDS011;3159;52.414;9.784;2022-10-16T14:12:56;1.73;;;0.80;;
6251;SDS011;3159;52.414;9.784;2022-10-16T14:15:26;2.03;;;0.60;;
6251;SDS011;3159;52.414;9.784;2022-10-16T14:17:53;5.07;;;0.70;;
6251;SDS011;3159;52.414;9.784;2022-10-16T14:20:21;2.17;;;0.80;;
6251;SDS011;3159;52.414;9.784;2022-10-16T14:23:01;3.20;;;0.70;;
6251;SDS011;3159;52.414;9.784;2022-10-16T14:25:30;2.07;;;0.80;;
6251;SDS011;3159;52.414;9.784;2022-10-16T14:27:58;2.50;;;0.90;;
6251;SDS011;3159;52.414;9.784;2022-10-16T14:30:28;2.40;;;0.50;;
6251;SDS011;3159;52.414;9.784;2022-10-16T14:32:57;1.90;;;0.50;;
6251;SDS011;3159;52.414;9.784;2022-10-16T14:35:27;1.70;;;0.60;;
6251;SDS011;3159;52.414;9.784;2022-10-16T14:37:56;1.80;;;0.40;;
6251;SDS011;3159;52.414;9.784;2022-10-16T14:40:24;2.20;;;0.40;;
6251;SDS011;3159;52.414;9.784;2022-10-16T14:42:53;2.27;;;0.60;;
6251;SDS011;3159;52.414;9.784;2022-10-16T14:45:20;1.27;;;0.77;;
6251;SDS011;3159;52.414;9.784;2022-10-16T14:47:51;2.00;;;0.70;;
6251;SDS011;3159;52.414;9.784;2022-10-16T14:50:20;0.70;;;0.70;;
6251;SDS011;3159;52.414;9.784;2022-10-16T14:52:47;2.43;;;0.83;;
6251;SDS011;3159;52.414;9.784;2022-10-16T14:55:14;2.17;;;0.70;;
6251;SDS011;3159;52.414;9.784;2022-10-16T14:57:42;1.50;;;0.70;;
6251;SDS011;3159;52.414;9.784;2022-10-16T15:00:13;1.33;;;0.70;;
6251;SDS011;3159;52.414;9.784;2022-10-16T15:02:45;1.40;;;0.60;;
6251;SDS011;3159;52.414;9.784;2022-10-16T15:05:16;3.40;;;0.80;;
6251;SDS011;3159;52.414;9.784;2022-10-16T15:07:45;0.83;;;0.53;;
6251;SDS011;3159;52.414;9.784;2022-10-16T15:10:12;0.63;;;0.60;;
6251;SDS011;3159;52.414;9.784;2022-10-16T15:12:40;2.20;;;0.80;;
6251;SDS011;3159;52.414;9.784;2022-10-16T15:17:58;1.97;;;0.70;;
6251;SDS011;3159;52.414;9.784;2022-10-16T15:20:27;0.87;;;0.50;;
6251;SDS011;3159;52.414;9.784;2022-10-16T15:22:55;3.83;;;0.70;;
6251;SDS011;3159;52.414;9.784;2022-10-16T15:25:34;1.13;;;0.57;;
6251;SDS011;3159;52.414;9.784;2022-10-16T15:28:03;2.93;;;0.70;;
6251;SDS011;3159;52.414;9.784;2022-10-16T15:30:30;2.00;;;0.63;;
6251;SDS011;3159;52.414;9.784;2022-10-16T15:32:57;1.13;;;0.80;;
6251;SDS011;3159;52.414;9.784;2022-10-16T15:35:24;2.47;;;1.13;;
6251;SDS011;3159;52.414;9.784;2022-10-16T15:37:53;1.47;;;1.07;;
6251;SDS011;3159;52.414;9.784;2022-10-16T15:40:20;1.90;;;0.70;;
6251;SDS011;3159;52.414;9.784;2022-10-16T15:42:47;4.13;;;2.37;;